ENT7163 EPPO-LEPA
Flight info
| Callsign | ENT7163 |
|---|---|
| Flight time | N/A |
| Altitude | 34000 |
| Route | ERNOX P861 LATAG DCT RASAN DCT ASTEL DCT BUDEX DCT DETSA/N0446F350 DCT BAKOR DCT GEKBA/N0431F290 DCT VAMTU DCT KOLON DCT GANGU DCT PADKO DCT VATIR N852 VERSO L129 LUNIK |
| Aircraft | B38M/M-SDFGHIJ1J4J7RWXY/EB1 |
Departure
| Time | 2026-04-30 21:00 |
|---|---|
| Airport | Poznań-Ławica Airport (EPPO) |
Arrival
| Time | N/A |
|---|---|
| Airport | Palma de Mallorca Airport (LEPA) |
| Time | Latitude | Longitude | Altitude | Speed | Heading |
|---|---|---|---|---|---|
| 2026-04-30 20:38 | 52.41558 | 16.83199 | 303 ft | 0 kts | 192° |
| 2026-04-30 20:51 | 52.41569 | 16.83204 | 303 ft | 2 kts | 192° |
| 2026-04-30 20:52 | 52.41584 | 16.83209 | 303 ft | 1 kts | 192° |
| 2026-04-30 20:52 | 52.41595 | 16.83213 | 303 ft | 2 kts | 177° |
| 2026-04-30 20:52 | 52.41619 | 16.83185 | 304 ft | 2 kts | 111° |
| 2026-04-30 20:53 | 52.41621 | 16.83175 | 304 ft | 1 kts | 98° |
| 2026-04-30 20:53 | 52.41621 | 16.83169 | 304 ft | 0 kts | 102° |
| 2026-04-30 20:55 | 52.41620 | 16.83181 | 304 ft | 2 kts | 103° |
| 2026-04-30 20:55 | 52.41613 | 16.83233 | 303 ft | 6 kts | 103° |
| 2026-04-30 20:56 | 52.41585 | 16.83433 | 303 ft | 11 kts | 103° |
| 2026-04-30 20:56 | 52.41570 | 16.83583 | 302 ft | 14 kts | 95° |
| 2026-04-30 20:56 | 52.41584 | 16.83907 | 301 ft | 14 kts | 52° |
| 2026-04-30 20:57 | 52.41669 | 16.84005 | 302 ft | 14 kts | 21° |
| 2026-04-30 20:57 | 52.41716 | 16.84034 | 302 ft | 0 kts | 21° |
| 2026-04-30 20:57 | 52.41717 | 16.84035 | 302 ft | 0 kts | 21° |
| 2026-04-30 20:58 | 52.41718 | 16.84035 | 302 ft | 0 kts | 21° |
| 2026-04-30 20:58 | 52.41720 | 16.84037 | 302 ft | 1 kts | 21° |
| 2026-04-30 20:58 | 52.41746 | 16.84053 | 303 ft | 6 kts | 21° |
| 2026-04-30 20:59 | 52.41834 | 16.84013 | 305 ft | 8 kts | 293° |
| 2026-04-30 20:59 | 52.41885 | 16.83767 | 307 ft | 53 kts | 288° |
| 2026-04-30 21:00 | 52.42364 | 16.81290 | 311 ft | 166 kts | 288° |
| 2026-04-30 21:00 | 52.43079 | 16.77470 | 1471 ft | 177 kts | 290° |
| 2026-04-30 21:01 | 52.43871 | 16.73424 | 2480 ft | 192 kts | 291° |
| 2026-04-30 21:01 | 52.44295 | 16.71217 | 2873 ft | 206 kts | 291° |
| 2026-04-30 21:01 | 52.44419 | 16.66230 | 3493 ft | 251 kts | 242° |
| 2026-04-30 21:02 | 52.43169 | 16.64159 | 4176 ft | 259 kts | 218° |
| 2026-04-30 21:02 | 52.41619 | 16.62378 | 4532 ft | 279 kts | 217° |
| 2026-04-30 21:02 | 52.40038 | 16.60558 | 5198 ft | 283 kts | 217° |
| 2026-04-30 21:02 | 52.38422 | 16.58662 | 5847 ft | 288 kts | 218° |
| 2026-04-30 21:03 | 52.36788 | 16.56734 | 6561 ft | 291 kts | 218° |
| 2026-04-30 21:03 | 52.35138 | 16.54786 | 7175 ft | 296 kts | 218° |
| 2026-04-30 21:03 | 52.33463 | 16.52808 | 7817 ft | 301 kts | 217° |
| 2026-04-30 21:03 | 52.31773 | 16.50814 | 8492 ft | 303 kts | 217° |
| 2026-04-30 21:04 | 52.30061 | 16.48795 | 9095 ft | 308 kts | 217° |
| 2026-04-30 21:04 | 52.28283 | 16.46700 | 9725 ft | 312 kts | 216° |
| 2026-04-30 21:04 | 52.24729 | 16.42520 | 10776 ft | 326 kts | 216° |
| 2026-04-30 21:05 | 52.22846 | 16.40308 | 11080 ft | 341 kts | 216° |
| 2026-04-30 21:05 | 52.20881 | 16.38003 | 11425 ft | 353 kts | 216° |
| 2026-04-30 21:05 | 52.18881 | 16.35659 | 11976 ft | 358 kts | 216° |
| 2026-04-30 21:05 | 52.16853 | 16.33288 | 12586 ft | 362 kts | 215° |
| 2026-04-30 21:06 | 52.14787 | 16.30872 | 13248 ft | 364 kts | 215° |
| 2026-04-30 21:06 | 52.12721 | 16.28459 | 13821 ft | 369 kts | 215° |
| 2026-04-30 21:06 | 52.10624 | 16.26010 | 14389 ft | 374 kts | 215° |
| 2026-04-30 21:06 | 52.08524 | 16.23562 | 14943 ft | 379 kts | 215° |
| 2026-04-30 21:07 | 52.06360 | 16.21040 | 15515 ft | 384 kts | 215° |
| 2026-04-30 21:07 | 52.04165 | 16.18488 | 15998 ft | 392 kts | 214° |
| 2026-04-30 21:07 | 52.01960 | 16.15931 | 16593 ft | 394 kts | 214° |
| 2026-04-30 21:07 | 51.99735 | 16.13351 | 17136 ft | 399 kts | 214° |
| 2026-04-30 21:08 | 51.97453 | 16.10708 | 17697 ft | 403 kts | 214° |
| 2026-04-30 21:08 | 51.95168 | 16.08067 | 18175 ft | 409 kts | 214° |
| 2026-04-30 21:08 | 51.92830 | 16.05369 | 18720 ft | 412 kts | 214° |
| 2026-04-30 21:08 | 51.90485 | 16.02663 | 19236 ft | 416 kts | 214° |
| 2026-04-30 21:09 | 51.88125 | 15.99946 | 19705 ft | 421 kts | 214° |
| 2026-04-30 21:09 | 51.85718 | 15.97179 | 20249 ft | 423 kts | 214° |
| 2026-04-30 21:09 | 51.83313 | 15.94417 | 20717 ft | 428 kts | 214° |
| 2026-04-30 21:09 | 51.80893 | 15.91640 | 21266 ft | 429 kts | 214° |
| 2026-04-30 21:10 | 51.78447 | 15.88839 | 21701 ft | 434 kts | 215° |
| 2026-04-30 21:10 | 51.75986 | 15.86023 | 22209 ft | 435 kts | 214° |
| 2026-04-30 21:10 | 51.73484 | 15.83164 | 22533 ft | 443 kts | 215° |
| 2026-04-30 21:10 | 51.70982 | 15.80307 | 23131 ft | 441 kts | 215° |
| 2026-04-30 21:11 | 51.68451 | 15.77422 | 23523 ft | 446 kts | 215° |
| 2026-04-30 21:11 | 51.65943 | 15.74570 | 23929 ft | 450 kts | 214° |
| 2026-04-30 21:11 | 51.63369 | 15.71646 | 24305 ft | 454 kts | 214° |
| 2026-04-30 21:11 | 51.60783 | 15.68710 | 24791 ft | 455 kts | 214° |
| 2026-04-30 21:12 | 51.58205 | 15.65789 | 25111 ft | 460 kts | 214° |
| 2026-04-30 21:12 | 51.55567 | 15.62805 | 25585 ft | 461 kts | 215° |
| 2026-04-30 21:12 | 51.52925 | 15.59819 | 25903 ft | 466 kts | 214° |
| 2026-04-30 21:12 | 51.50279 | 15.56837 | 26351 ft | 467 kts | 214° |
| 2026-04-30 21:13 | 51.47591 | 15.53812 | 26703 ft | 470 kts | 214° |
| 2026-04-30 21:13 | 51.44938 | 15.50827 | 27085 ft | 473 kts | 214° |
| 2026-04-30 21:13 | 51.42204 | 15.47754 | 27439 ft | 476 kts | 214° |
| 2026-04-30 21:13 | 51.39500 | 15.44719 | 27759 ft | 479 kts | 215° |
| 2026-04-30 21:14 | 51.36784 | 15.41675 | 28132 ft | 481 kts | 214° |
| 2026-04-30 21:14 | 51.34022 | 15.38586 | 28412 ft | 485 kts | 214° |
| 2026-04-30 21:14 | 51.31227 | 15.35464 | 28782 ft | 487 kts | 214° |
| 2026-04-30 21:14 | 51.28337 | 15.32240 | 29204 ft | 487 kts | 213° |
| 2026-04-30 21:15 | 51.25502 | 15.29082 | 29494 ft | 490 kts | 214° |
| 2026-04-30 21:15 | 51.22691 | 15.25955 | 29834 ft | 492 kts | 213° |
| 2026-04-30 21:15 | 51.19879 | 15.22832 | 30084 ft | 495 kts | 213° |
| 2026-04-30 21:15 | 51.17025 | 15.19669 | 30364 ft | 498 kts | 214° |
| 2026-04-30 21:16 | 51.14185 | 15.16527 | 30662 ft | 500 kts | 213° |
| 2026-04-30 21:16 | 51.11337 | 15.13383 | 30927 ft | 502 kts | 213° |
| 2026-04-30 21:16 | 51.08453 | 15.10204 | 31228 ft | 504 kts | 214° |
| 2026-04-30 21:16 | 51.05586 | 15.07048 | 31529 ft | 505 kts | 213° |
| 2026-04-30 21:17 | 51.02708 | 15.03886 | 31792 ft | 508 kts | 214° |
| 2026-04-30 21:17 | 50.99785 | 15.00674 | 32087 ft | 509 kts | 213° |
| 2026-04-30 21:17 | 50.96865 | 14.97470 | 32245 ft | 514 kts | 213° |
| 2026-04-30 21:17 | 50.93971 | 14.94302 | 32646 ft | 512 kts | 214° |
| 2026-04-30 21:18 | 50.91027 | 14.91127 | 32801 ft | 517 kts | 212° |
| 2026-04-30 21:18 | 50.87926 | 14.88179 | 33102 ft | 516 kts | 206° |
| 2026-04-30 21:18 | 50.84660 | 14.85934 | 33513 ft | 509 kts | 194° |
| 2026-04-30 21:18 | 50.81279 | 14.84547 | 33902 ft | 503 kts | 188° |
| 2026-04-30 21:19 | 50.77856 | 14.83482 | 34234 ft | 501 kts | 186° |
| 2026-04-30 21:19 | 50.74439 | 14.82528 | 34382 ft | 503 kts | 185° |
| 2026-04-30 21:19 | 50.67536 | 14.80647 | 34395 ft | 504 kts | 185° |
| 2026-04-30 21:20 | 50.60702 | 14.78747 | 34401 ft | 502 kts | 186° |
| 2026-04-30 21:20 | 50.53771 | 14.76811 | 34406 ft | 503 kts | 186° |
| 2026-04-30 21:21 | 50.46829 | 14.74873 | 34404 ft | 504 kts | 186° |
| 2026-04-30 21:22 | 50.36521 | 14.71988 | 34423 ft | 504 kts | 185° |
| 2026-04-30 21:23 | 50.22772 | 14.68168 | 34430 ft | 503 kts | 185° |
| 2026-04-30 21:23 | 50.12434 | 14.65309 | 34428 ft | 503 kts | 185° |
| 2026-04-30 21:24 | 50.05550 | 14.63409 | 34424 ft | 504 kts | 185° |
| 2026-04-30 21:24 | 49.98626 | 14.61506 | 34424 ft | 506 kts | 185° |
| 2026-04-30 21:25 | 49.88301 | 14.58676 | 34421 ft | 505 kts | 185° |
| 2026-04-30 21:26 | 49.77885 | 14.55832 | 34414 ft | 507 kts | 185° |
| 2026-04-30 21:27 | 49.67512 | 14.53015 | 34409 ft | 505 kts | 185° |
| 2026-04-30 21:27 | 49.60593 | 14.51142 | 34405 ft | 507 kts | 185° |
| 2026-04-30 21:28 | 49.50205 | 14.48346 | 34401 ft | 507 kts | 185° |
| 2026-04-30 21:29 | 49.39820 | 14.45557 | 34401 ft | 506 kts | 185° |
| 2026-04-30 21:30 | 49.22538 | 14.40949 | 34402 ft | 506 kts | 184° |
| 2026-04-30 21:31 | 49.05061 | 14.36317 | 34416 ft | 508 kts | 185° |
| 2026-04-30 21:32 | 48.94740 | 14.32643 | 34415 ft | 514 kts | 198° |
| 2026-04-30 21:32 | 48.88419 | 14.27423 | 34402 ft | 521 kts | 211° |
| 2026-04-30 21:33 | 48.79417 | 14.18317 | 34397 ft | 522 kts | 212° |
| 2026-04-30 21:34 | 48.73385 | 14.12208 | 34398 ft | 520 kts | 212° |
| 2026-04-30 21:34 | 48.64327 | 14.03169 | 34394 ft | 521 kts | 211° |
| 2026-04-30 21:35 | 48.58315 | 13.97213 | 34392 ft | 520 kts | 212° |
| 2026-04-30 21:35 | 48.52292 | 13.91257 | 34397 ft | 520 kts | 212° |
| 2026-04-30 21:36 | 48.46251 | 13.85298 | 34402 ft | 519 kts | 212° |
| 2026-04-30 21:37 | 48.34167 | 13.73430 | 34391 ft | 519 kts | 211° |
| 2026-04-30 21:37 | 48.28129 | 13.67535 | 34401 ft | 518 kts | 212° |
| 2026-04-30 21:38 | 48.22091 | 13.61654 | 34396 ft | 516 kts | 212° |
| 2026-04-30 21:38 | 48.16066 | 13.55812 | 34390 ft | 519 kts | 211° |
| 2026-04-30 21:39 | 48.10021 | 13.49967 | 34376 ft | 519 kts | 212° |
| 2026-04-30 21:39 | 48.03945 | 13.44089 | 34370 ft | 518 kts | 211° |
| 2026-04-30 21:40 | 47.97923 | 13.38290 | 34369 ft | 517 kts | 212° |
| 2026-04-30 21:40 | 47.91853 | 13.32459 | 34356 ft | 519 kts | 211° |
| 2026-04-30 21:41 | 47.85825 | 13.26680 | 34371 ft | 516 kts | 211° |
| 2026-04-30 21:41 | 47.79777 | 13.20904 | 34375 ft | 517 kts | 211° |
| 2026-04-30 21:42 | 47.73761 | 13.15178 | 34346 ft | 516 kts | 212° |
| 2026-04-30 21:42 | 47.67697 | 13.09423 | 34356 ft | 515 kts | 212° |
| 2026-04-30 21:43 | 47.62679 | 13.04673 | 34343 ft | 516 kts | 211° |
| 2026-04-30 21:43 | 47.55657 | 12.98040 | 34336 ft | 514 kts | 211° |
| 2026-04-30 21:44 | 47.49633 | 12.92382 | 34343 ft | 514 kts | 212° |
| 2026-04-30 21:44 | 47.43587 | 12.86698 | 34334 ft | 514 kts | 211° |
| 2026-04-30 21:45 | 47.37603 | 12.81088 | 34354 ft | 513 kts | 211° |
| 2026-04-30 21:45 | 47.31559 | 12.75441 | 34342 ft | 513 kts | 212° |
| 2026-04-30 21:46 | 47.25572 | 12.69863 | 34357 ft | 512 kts | 211° |
| 2026-04-30 21:46 | 47.19532 | 12.64247 | 34349 ft | 512 kts | 212° |
| 2026-04-30 21:47 | 47.13521 | 12.58681 | 34346 ft | 510 kts | 212° |
| 2026-04-30 21:47 | 47.07526 | 12.53153 | 34343 ft | 511 kts | 212° |
| 2026-04-30 21:48 | 47.01520 | 12.47623 | 34352 ft | 511 kts | 211° |
| 2026-04-30 21:48 | 46.95480 | 12.42074 | 34328 ft | 512 kts | 211° |
| 2026-04-30 21:49 | 46.89465 | 12.36554 | 34298 ft | 509 kts | 212° |
| 2026-04-30 21:49 | 46.83586 | 12.30759 | 34323 ft | 512 kts | 222° |
| 2026-04-30 21:50 | 46.78873 | 12.23076 | 34329 ft | 507 kts | 235° |
| 2026-04-30 21:50 | 46.75242 | 12.14500 | 34314 ft | 498 kts | 246° |
| 2026-04-30 21:51 | 46.72160 | 12.05430 | 34345 ft | 498 kts | 248° |
| 2026-04-30 21:51 | 46.69099 | 11.96431 | 34331 ft | 500 kts | 248° |
| 2026-04-30 21:52 | 46.65963 | 11.87399 | 34337 ft | 500 kts | 247° |
| 2026-04-30 21:52 | 46.62826 | 11.78480 | 34326 ft | 498 kts | 246° |
| 2026-04-30 21:53 | 46.59217 | 11.69835 | 34317 ft | 502 kts | 237° |
| 2026-04-30 21:53 | 46.54927 | 11.61981 | 34312 ft | 500 kts | 234° |
| 2026-04-30 21:54 | 46.50545 | 11.54150 | 34320 ft | 503 kts | 234° |
| 2026-04-30 21:54 | 46.46154 | 11.46282 | 34322 ft | 501 kts | 234° |
| 2026-04-30 21:55 | 46.41760 | 11.38409 | 34307 ft | 501 kts | 234° |
| 2026-04-30 21:55 | 46.37406 | 11.30629 | 34318 ft | 501 kts | 234° |
| 2026-04-30 21:56 | 46.33005 | 11.22772 | 34324 ft | 500 kts | 233° |
| 2026-04-30 21:56 | 46.28637 | 11.15001 | 34324 ft | 500 kts | 233° |
| 2026-04-30 21:57 | 46.24265 | 11.07242 | 34318 ft | 501 kts | 233° |
| 2026-04-30 21:57 | 46.19868 | 10.99465 | 34328 ft | 498 kts | 233° |
| 2026-04-30 21:58 | 46.15514 | 10.91769 | 34312 ft | 499 kts | 234° |
| 2026-04-30 21:58 | 46.11089 | 10.83988 | 34283 ft | 497 kts | 234° |
| 2026-04-30 21:59 | 46.06559 | 10.76033 | 34274 ft | 506 kts | 234° |
| 2026-04-30 22:00 | 45.99768 | 10.64155 | 34274 ft | 517 kts | 233° |
| 2026-04-30 22:00 | 45.92852 | 10.52122 | 34300 ft | 513 kts | 233° |
| 2026-04-30 22:01 | 45.88241 | 10.44122 | 34308 ft | 513 kts | 233° |
| 2026-04-30 22:01 | 45.83660 | 10.36200 | 34318 ft | 509 kts | 234° |
| 2026-04-30 22:02 | 45.79120 | 10.28370 | 34333 ft | 510 kts | 233° |
| 2026-04-30 22:02 | 45.74535 | 10.20479 | 34332 ft | 509 kts | 233° |
| 2026-04-30 22:03 | 45.70017 | 10.12733 | 34334 ft | 508 kts | 233° |
| 2026-04-30 22:03 | 45.65503 | 10.05017 | 34335 ft | 504 kts | 233° |
| 2026-04-30 22:04 | 45.60976 | 9.97293 | 34329 ft | 507 kts | 233° |
| 2026-04-30 22:05 | 45.54236 | 9.85838 | 34327 ft | 501 kts | 234° |
| 2026-04-30 22:05 | 45.49764 | 9.78261 | 34337 ft | 502 kts | 233° |
| 2026-04-30 22:06 | 45.45263 | 9.70651 | 34327 ft | 502 kts | 233° |
| 2026-04-30 22:06 | 45.38555 | 9.59356 | 34325 ft | 501 kts | 233° |
| 2026-04-30 22:07 | 45.34054 | 9.51801 | 34319 ft | 499 kts | 233° |
| 2026-04-30 22:07 | 45.29597 | 9.44338 | 34323 ft | 499 kts | 233° |
| 2026-04-30 22:08 | 45.25142 | 9.36901 | 34321 ft | 497 kts | 233° |
| 2026-04-30 22:08 | 45.20646 | 9.29416 | 34318 ft | 497 kts | 233° |
| 2026-04-30 22:09 | 45.16190 | 9.22019 | 34315 ft | 496 kts | 233° |
| 2026-04-30 22:09 | 45.11698 | 9.14583 | 34311 ft | 496 kts | 232° |
| 2026-04-30 22:10 | 45.07229 | 9.07203 | 34317 ft | 496 kts | 232° |
| 2026-04-30 22:10 | 45.02755 | 8.99832 | 34308 ft | 495 kts | 233° |
| 2026-04-30 22:11 | 44.96064 | 8.88849 | 34299 ft | 494 kts | 232° |
| 2026-04-30 22:12 | 44.91606 | 8.81553 | 34282 ft | 491 kts | 232° |
| 2026-04-30 22:12 | 44.87155 | 8.74290 | 34286 ft | 491 kts | 232° |
| 2026-04-30 22:13 | 44.82711 | 8.67055 | 34286 ft | 488 kts | 232° |
| 2026-04-30 22:13 | 44.78293 | 8.59884 | 34280 ft | 487 kts | 232° |
| 2026-04-30 22:14 | 44.73840 | 8.52671 | 34276 ft | 487 kts | 232° |
| 2026-04-30 22:14 | 44.69433 | 8.45550 | 34283 ft | 486 kts | 232° |
| 2026-04-30 22:15 | 44.64996 | 8.38397 | 34273 ft | 483 kts | 232° |
| 2026-04-30 22:15 | 44.60589 | 8.31316 | 34267 ft | 483 kts | 231° |
| 2026-04-30 22:16 | 44.56176 | 8.24244 | 34266 ft | 480 kts | 231° |
| 2026-04-30 22:17 | 44.47407 | 8.10235 | 34255 ft | 477 kts | 231° |
| 2026-04-30 22:17 | 44.40842 | 7.99796 | 34251 ft | 476 kts | 231° |
| 2026-04-30 22:18 | 44.34284 | 7.89403 | 34257 ft | 476 kts | 231° |
| 2026-04-30 22:19 | 44.27765 | 7.79068 | 34256 ft | 472 kts | 231° |
| 2026-04-30 22:20 | 44.20567 | 7.69657 | 34255 ft | 473 kts | 223° |
| 2026-04-30 22:20 | 44.13285 | 7.60605 | 34256 ft | 468 kts | 230° |
| 2026-04-30 22:21 | 44.08969 | 7.53845 | 34236 ft | 465 kts | 232° |
| 2026-04-30 22:21 | 44.04803 | 7.47091 | 34240 ft | 461 kts | 233° |
| 2026-04-30 22:22 | 44.00640 | 7.40397 | 34251 ft | 459 kts | 233° |
| 2026-04-30 22:22 | 43.96454 | 7.33713 | 34242 ft | 458 kts | 232° |
| 2026-04-30 22:23 | 43.92289 | 7.27088 | 34232 ft | 459 kts | 232° |
| 2026-04-30 22:23 | 43.88080 | 7.20418 | 34237 ft | 457 kts | 232° |
| 2026-04-30 22:24 | 43.83923 | 7.13848 | 34248 ft | 456 kts | 232° |
| 2026-04-30 22:24 | 43.79735 | 7.07244 | 34236 ft | 455 kts | 232° |
| 2026-04-30 22:25 | 43.75591 | 7.00713 | 34238 ft | 452 kts | 234° |
| 2026-04-30 22:25 | 43.72029 | 6.93710 | 34210 ft | 446 kts | 244° |
| 2026-04-30 22:26 | 43.68233 | 6.82086 | 34222 ft | 442 kts | 252° |
| 2026-04-30 22:27 | 43.65948 | 6.74273 | 34220 ft | 441 kts | 252° |
| 2026-04-30 22:27 | 43.62500 | 6.62584 | 34218 ft | 438 kts | 252° |
| 2026-04-30 22:28 | 43.59053 | 6.50976 | 34209 ft | 438 kts | 251° |
| 2026-04-30 22:29 | 43.54430 | 6.35525 | 34201 ft | 435 kts | 252° |
| 2026-04-30 22:31 | 43.46353 | 6.08742 | 34202 ft | 433 kts | 251° |
| 2026-04-30 22:32 | 43.40561 | 5.89709 | 34188 ft | 432 kts | 251° |
| 2026-04-30 22:33 | 43.34762 | 5.70795 | 34189 ft | 431 kts | 251° |
| 2026-04-30 22:35 | 43.28943 | 5.51950 | 34183 ft | 430 kts | 251° |
| 2026-04-30 22:36 | 43.22554 | 5.33542 | 34179 ft | 436 kts | 236° |
| 2026-04-30 22:37 | 43.15913 | 5.24818 | 34170 ft | 443 kts | 225° |
| 2026-04-30 22:37 | 43.13578 | 5.22084 | 34177 ft | 443 kts | 225° |
| 2026-04-30 22:38 | 43.04265 | 5.11214 | 34171 ft | 443 kts | 225° |
| 2026-04-30 22:39 | 42.97213 | 5.03004 | 34165 ft | 442 kts | 225° |
| 2026-04-30 22:40 | 42.83155 | 4.86709 | 34170 ft | 442 kts | 225° |
| 2026-04-30 22:41 | 42.71469 | 4.73238 | 34163 ft | 442 kts | 225° |
| 2026-04-30 22:43 | 42.57161 | 4.56842 | 34162 ft | 440 kts | 225° |
| 2026-04-30 22:44 | 42.47775 | 4.46140 | 34158 ft | 440 kts | 225° |
| 2026-04-30 22:45 | 42.33693 | 4.30164 | 34159 ft | 441 kts | 224° |
| 2026-04-30 22:47 | 42.19570 | 4.14268 | 34156 ft | 442 kts | 223° |
| 2026-04-30 22:48 | 42.09031 | 4.05529 | 34156 ft | 448 kts | 213° |
| 2026-04-30 22:49 | 41.92506 | 3.94000 | 34154 ft | 450 kts | 203° |
| 2026-04-30 22:51 | 41.73944 | 3.89101 | 34151 ft | 456 kts | 194° |
| 2026-04-30 22:52 | 41.64595 | 3.86966 | 34150 ft | 455 kts | 194° |
| 2026-04-30 22:53 | 41.51833 | 3.83922 | 34148 ft | 453 kts | 199° |
| 2026-04-30 22:53 | 41.42919 | 3.80101 | 34144 ft | 449 kts | 202° |
| 2026-04-30 22:55 | 41.27732 | 3.73551 | 34142 ft | 449 kts | 201° |
| 2026-04-30 22:56 | 41.15778 | 3.68572 | 34143 ft | 448 kts | 201° |
| 2026-04-30 22:57 | 41.00948 | 3.62459 | 33613 ft | 448 kts | 201° |
| 2026-04-30 22:57 | 40.95025 | 3.60031 | 31680 ft | 441 kts | 201° |
| 2026-04-30 22:58 | 40.89153 | 3.57635 | 30427 ft | 419 kts | 202° |
| 2026-04-30 22:59 | 40.81176 | 3.54382 | 29133 ft | 382 kts | 202° |
| 2026-04-30 22:59 | 40.73628 | 3.51293 | 27624 ft | 379 kts | 202° |